sensor_id;sensor_type;location;lat;lon;timestamp;P1;durP1;ratioP1;P2;durP2;ratioP2
5351;SDS011;2698;51.454;6.736;2023-04-28T00:00:57;17.33;;;9.97;;
5351;SDS011;2698;51.454;6.736;2023-04-28T00:03:24;11.30;;;8.40;;
5351;SDS011;2698;51.454;6.736;2023-04-28T00:05:52;29.43;;;9.30;;
5351;SDS011;2698;51.454;6.736;2023-04-28T00:08:19;23.63;;;11.07;;
5351;SDS011;2698;51.454;6.736;2023-04-28T00:10:47;25.60;;;10.27;;
5351;SDS011;2698;51.454;6.736;2023-04-28T00:13:14;16.50;;;9.53;;
5351;SDS011;2698;51.454;6.736;2023-04-28T00:15:43;23.43;;;10.87;;
5351;SDS011;2698;51.454;6.736;2023-04-28T00:18:10;17.33;;;9.90;;
5351;SDS011;2698;51.454;6.736;2023-04-28T00:20:37;16.93;;;10.40;;
5351;SDS011;2698;51.454;6.736;2023-04-28T00:23:04;13.70;;;9.73;;
5351;SDS011;2698;51.454;6.736;2023-04-28T00:25:31;15.00;;;8.37;;
5351;SDS011;2698;51.454;6.736;2023-04-28T00:27:58;11.63;;;9.10;;
5351;SDS011;2698;51.454;6.736;2023-04-28T00:30:25;11.37;;;9.00;;
5351;SDS011;2698;51.454;6.736;2023-04-28T00:32:54;19.73;;;9.60;;
5351;SDS011;2698;51.454;6.736;2023-04-28T00:35:21;15.17;;;8.50;;
5351;SDS011;2698;51.454;6.736;2023-04-28T00:37:48;13.47;;;8.97;;
5351;SDS011;2698;51.454;6.736;2023-04-28T00:40:15;14.30;;;9.00;;
5351;SDS011;2698;51.454;6.736;2023-04-28T00:42:43;17.00;;;9.17;;
5351;SDS011;2698;51.454;6.736;2023-04-28T00:45:10;22.23;;;10.20;;
5351;SDS011;2698;51.454;6.736;2023-04-28T00:47:37;26.33;;;10.17;;
5351;SDS011;2698;51.454;6.736;2023-04-28T00:50:06;13.50;;;8.53;;
5351;SDS011;2698;51.454;6.736;2023-04-28T00:52:34;21.43;;;10.33;;
5351;SDS011;2698;51.454;6.736;2023-04-28T00:55:02;16.10;;;10.47;;
5351;SDS011;2698;51.454;6.736;2023-04-28T00:57:30;18.13;;;10.23;;
5351;SDS011;2698;51.454;6.736;2023-04-28T00:59:57;25.93;;;10.67;;
5351;SDS011;2698;51.454;6.736;2023-04-28T01:02:24;20.47;;;11.03;;
5351;SDS011;2698;51.454;6.736;2023-04-28T01:04:53;19.10;;;12.23;;
5351;SDS011;2698;51.454;6.736;2023-04-28T01:07:22;15.57;;;11.30;;
5351;SDS011;2698;51.454;6.736;2023-04-28T01:09:49;22.90;;;11.77;;
5351;SDS011;2698;51.454;6.736;2023-04-28T01:12:16;25.17;;;11.17;;
5351;SDS011;2698;51.454;6.736;2023-04-28T01:14:43;29.93;;;11.90;;
5351;SDS011;2698;51.454;6.736;2023-04-28T01:17:11;22.13;;;12.67;;
5351;SDS011;2698;51.454;6.736;2023-04-28T01:19:38;25.40;;;12.83;;
5351;SDS011;2698;51.454;6.736;2023-04-28T01:22:05;24.10;;;12.53;;
5351;SDS011;2698;51.454;6.736;2023-04-28T01:24:35;22.23;;;12.80;;
5351;SDS011;2698;51.454;6.736;2023-04-28T01:27:03;22.53;;;11.90;;
5351;SDS011;2698;51.454;6.736;2023-04-28T01:29:30;17.20;;;12.10;;
5351;SDS011;2698;51.454;6.736;2023-04-28T01:31:57;16.83;;;11.40;;
5351;SDS011;2698;51.454;6.736;2023-04-28T01:34:24;19.10;;;12.50;;
5351;SDS011;2698;51.454;6.736;2023-04-28T01:36:51;23.57;;;12.90;;
5351;SDS011;2698;51.454;6.736;2023-04-28T01:39:18;16.53;;;11.40;;
5351;SDS011;2698;51.454;6.736;2023-04-28T01:41:47;28.70;;;13.67;;
5351;SDS011;2698;51.454;6.736;2023-04-28T01:44:14;19.83;;;12.70;;
5351;SDS011;2698;51.454;6.736;2023-04-28T01:46:41;20.93;;;12.80;;
5351;SDS011;2698;51.454;6.736;2023-04-28T01:49:08;23.17;;;12.80;;
5351;SDS011;2698;51.454;6.736;2023-04-28T01:51:35;29.00;;;15.07;;
5351;SDS011;2698;51.454;6.736;2023-04-28T01:54:05;23.93;;;13.33;;
5351;SDS011;2698;51.454;6.736;2023-04-28T01:56:32;25.40;;;14.67;;
5351;SDS011;2698;51.454;6.736;2023-04-28T01:59:00;20.77;;;13.80;;
5351;SDS011;2698;51.454;6.736;2023-04-28T02:01:27;26.50;;;13.43;;
5351;SDS011;2698;51.454;6.736;2023-04-28T02:03:55;18.90;;;13.63;;
5351;SDS011;2698;51.454;6.736;2023-04-28T02:06:22;19.57;;;13.03;;
5351;SDS011;2698;51.454;6.736;2023-04-28T02:08:49;28.10;;;14.83;;
5351;SDS011;2698;51.454;6.736;2023-04-28T02:11:16;24.37;;;14.17;;
5351;SDS011;2698;51.454;6.736;2023-04-28T02:13:43;19.07;;;14.17;;
5351;SDS011;2698;51.454;6.736;2023-04-28T02:16:12;18.60;;;13.37;;
5351;SDS011;2698;51.454;6.736;2023-04-28T02:18:39;26.53;;;15.23;;
5351;SDS011;2698;51.454;6.736;2023-04-28T02:21:07;27.20;;;15.17;;
5351;SDS011;2698;51.454;6.736;2023-04-28T02:23:35;21.80;;;14.40;;
5351;SDS011;2698;51.454;6.736;2023-04-28T02:26:02;27.83;;;15.20;;
5351;SDS011;2698;51.454;6.736;2023-04-28T02:28:29;22.03;;;15.20;;
5351;SDS011;2698;51.454;6.736;2023-04-28T02:31:02;24.60;;;13.70;;
5351;SDS011;2698;51.454;6.736;2023-04-28T02:33:30;35.37;;;16.57;;
5351;SDS011;2698;51.454;6.736;2023-04-28T02:35:58;24.27;;;15.47;;
5351;SDS011;2698;51.454;6.736;2023-04-28T02:38:25;22.63;;;14.90;;
5351;SDS011;2698;51.454;6.736;2023-04-28T02:40:56;31.10;;;16.90;;
5351;SDS011;2698;51.454;6.736;2023-04-28T02:43:24;20.93;;;15.03;;
5351;SDS011;2698;51.454;6.736;2023-04-28T02:45:51;21.20;;;15.80;;
5351;SDS011;2698;51.454;6.736;2023-04-28T02:48:18;26.93;;;16.90;;
5351;SDS011;2698;51.454;6.736;2023-04-28T02:50:47;25.30;;;17.37;;
5351;SDS011;2698;51.454;6.736;2023-04-28T02:53:14;32.77;;;17.83;;
5351;SDS011;2698;51.454;6.736;2023-04-28T02:55:41;24.37;;;17.00;;
5351;SDS011;2698;51.454;6.736;2023-04-28T02:58:08;28.43;;;17.47;;
5351;SDS011;2698;51.454;6.736;2023-04-28T03:00:35;25.23;;;16.03;;
5351;SDS011;2698;51.454;6.736;2023-04-28T03:03:02;26.93;;;17.77;;
5351;SDS011;2698;51.454;6.736;2023-04-28T03:05:29;29.53;;;17.53;;
5351;SDS011;2698;51.454;6.736;2023-04-28T03:07:58;30.73;;;17.50;;
5351;SDS011;2698;51.454;6.736;2023-04-28T03:10:25;31.77;;;17.60;;
5351;SDS011;2698;51.454;6.736;2023-04-28T03:12:52;31.07;;;18.57;;
5351;SDS011;2698;51.454;6.736;2023-04-28T03:15:19;25.70;;;17.97;;
5351;SDS011;2698;51.454;6.736;2023-04-28T03:17:46;34.23;;;18.70;;
5351;SDS011;2698;51.454;6.736;2023-04-28T03:20:13;30.53;;;17.57;;
5351;SDS011;2698;51.454;6.736;2023-04-28T03:22:40;28.93;;;17.53;;
5351;SDS011;2698;51.454;6.736;2023-04-28T03:25:09;32.83;;;18.40;;
5351;SDS011;2698;51.454;6.736;2023-04-28T03:27:36;25.67;;;17.33;;
5351;SDS011;2698;51.454;6.736;2023-04-28T03:30:04;22.67;;;16.53;;
5351;SDS011;2698;51.454;6.736;2023-04-28T03:32:31;35.77;;;18.27;;
5351;SDS011;2698;51.454;6.736;2023-04-28T03:34:58;26.23;;;18.47;;
5351;SDS011;2698;51.454;6.736;2023-04-28T03:37:25;31.80;;;17.53;;
5351;SDS011;2698;51.454;6.736;2023-04-28T03:39:52;34.43;;;18.40;;
5351;SDS011;2698;51.454;6.736;2023-04-28T03:42:20;30.83;;;20.50;;
5351;SDS011;2698;51.454;6.736;2023-04-28T03:44:48;34.33;;;18.87;;
5351;SDS011;2698;51.454;6.736;2023-04-28T03:47:15;27.27;;;19.73;;
5351;SDS011;2698;51.454;6.736;2023-04-28T03:49:42;34.30;;;19.83;;
5351;SDS011;2698;51.454;6.736;2023-04-28T03:52:09;37.80;;;19.03;;
5351;SDS011;2698;51.454;6.736;2023-04-28T03:54:36;36.43;;;19.90;;
5351;SDS011;2698;51.454;6.736;2023-04-28T03:57:03;25.97;;;18.10;;
5351;SDS011;2698;51.454;6.736;2023-04-28T03:59:31;29.43;;;19.60;;
5351;SDS011;2698;51.454;6.736;2023-04-28T04:01:58;29.17;;;18.90;;
5351;SDS011;2698;51.454;6.736;2023-04-28T04:04:25;25.20;;;18.60;;
5351;SDS011;2698;51.454;6.736;2023-04-28T04:06:53;32.63;;;18.53;;
5351;SDS011;2698;51.454;6.736;2023-04-28T04:09:20;36.17;;;19.70;;
5351;SDS011;2698;51.454;6.736;2023-04-28T04:11:47;29.90;;;19.17;;
5351;SDS011;2698;51.454;6.736;2023-04-28T04:14:14;27.87;;;16.87;;
5351;SDS011;2698;51.454;6.736;2023-04-28T04:16:42;29.23;;;19.87;;
5351;SDS011;2698;51.454;6.736;2023-04-28T04:19:10;28.93;;;19.13;;
5351;SDS011;2698;51.454;6.736;2023-04-28T04:21:37;27.10;;;17.90;;
5351;SDS011;2698;51.454;6.736;2023-04-28T04:24:04;28.40;;;17.17;;
5351;SDS011;2698;51.454;6.736;2023-04-28T04:26:31;27.77;;;20.13;;
5351;SDS011;2698;51.454;6.736;2023-04-28T04:28:58;23.37;;;16.60;;
5351;SDS011;2698;51.454;6.736;2023-04-28T04:31:25;31.30;;;17.77;;
5351;SDS011;2698;51.454;6.736;2023-04-28T04:33:54;22.90;;;17.17;;
5351;SDS011;2698;51.454;6.736;2023-04-28T04:36:21;28.10;;;17.50;;
5351;SDS011;2698;51.454;6.736;2023-04-28T04:38:49;25.43;;;15.90;;
5351;SDS011;2698;51.454;6.736;2023-04-28T04:41:16;30.00;;;17.50;;
5351;SDS011;2698;51.454;6.736;2023-04-28T04:43:44;30.80;;;18.60;;
5351;SDS011;2698;51.454;6.736;2023-04-28T04:46:11;28.97;;;18.13;;
5351;SDS011;2698;51.454;6.736;2023-04-28T04:48:39;21.13;;;15.53;;
5351;SDS011;2698;51.454;6.736;2023-04-28T04:51:07;32.03;;;16.97;;
5351;SDS011;2698;51.454;6.736;2023-04-28T04:53:34;20.87;;;15.23;;
5351;SDS011;2698;51.454;6.736;2023-04-28T04:56:01;22.87;;;13.43;;
5351;SDS011;2698;51.454;6.736;2023-04-28T04:58:28;23.87;;;16.63;;
5351;SDS011;2698;51.454;6.736;2023-04-28T05:00:56;22.30;;;16.30;;
5351;SDS011;2698;51.454;6.736;2023-04-28T05:03:23;25.17;;;14.80;;
5351;SDS011;2698;51.454;6.736;2023-04-28T05:05:50;21.43;;;15.33;;
5351;SDS011;2698;51.454;6.736;2023-04-28T05:08:18;22.93;;;16.00;;
5351;SDS011;2698;51.454;6.736;2023-04-28T05:10:45;19.23;;;15.63;;
5351;SDS011;2698;51.454;6.736;2023-04-28T05:13:12;25.70;;;14.37;;
5351;SDS011;2698;51.454;6.736;2023-04-28T05:15:39;26.67;;;16.03;;
5351;SDS011;2698;51.454;6.736;2023-04-28T05:18:06;31.53;;;16.00;;
5351;SDS011;2698;51.454;6.736;2023-04-28T05:20:35;24.83;;;16.30;;
5351;SDS011;2698;51.454;6.736;2023-04-28T05:23:02;23.40;;;15.87;;
5351;SDS011;2698;51.454;6.736;2023-04-28T05:25:31;38.00;;;15.40;;
5351;SDS011;2698;51.454;6.736;2023-04-28T05:27:58;26.47;;;14.60;;
5351;SDS011;2698;51.454;6.736;2023-04-28T05:30:28;24.17;;;15.93;;
5351;SDS011;2698;51.454;6.736;2023-04-28T05:32:56;33.30;;;15.27;;
5351;SDS011;2698;51.454;6.736;2023-04-28T05:35:23;23.80;;;15.97;;
5351;SDS011;2698;51.454;6.736;2023-04-28T05:37:50;21.07;;;14.93;;
5351;SDS011;2698;51.454;6.736;2023-04-28T05:40:17;22.83;;;14.50;;
5351;SDS011;2698;51.454;6.736;2023-04-28T05:42:46;22.37;;;15.13;;
5351;SDS011;2698;51.454;6.736;2023-04-28T05:45:13;29.37;;;15.27;;
5351;SDS011;2698;51.454;6.736;2023-04-28T05:47:40;26.30;;;16.60;;
5351;SDS011;2698;51.454;6.736;2023-04-28T05:50:07;29.60;;;15.97;;
5351;SDS011;2698;51.454;6.736;2023-04-28T05:52:35;22.73;;;15.67;;
5351;SDS011;2698;51.454;6.736;2023-04-28T05:55:02;18.50;;;12.83;;
5351;SDS011;2698;51.454;6.736;2023-04-28T05:57:29;23.10;;;17.37;;
5351;SDS011;2698;51.454;6.736;2023-04-28T05:59:58;20.33;;;14.93;;
5351;SDS011;2698;51.454;6.736;2023-04-28T06:02:25;20.13;;;14.90;;
5351;SDS011;2698;51.454;6.736;2023-04-28T06:04:52;22.37;;;14.40;;
5351;SDS011;2698;51.454;6.736;2023-04-28T06:07:19;19.90;;;15.57;;
5351;SDS011;2698;51.454;6.736;2023-04-28T06:09:46;26.13;;;14.60;;
5351;SDS011;2698;51.454;6.736;2023-04-28T06:12:14;26.83;;;14.23;;
5351;SDS011;2698;51.454;6.736;2023-04-28T06:14:41;18.07;;;12.57;;
5351;SDS011;2698;51.454;6.736;2023-04-28T06:17:09;26.37;;;13.77;;
5351;SDS011;2698;51.454;6.736;2023-04-28T06:19:36;25.53;;;13.67;;
5351;SDS011;2698;51.454;6.736;2023-04-28T06:22:03;23.10;;;13.60;;
5351;SDS011;2698;51.454;6.736;2023-04-28T06:24:30;22.20;;;13.63;;
5351;SDS011;2698;51.454;6.736;2023-04-28T06:26:57;22.30;;;13.90;;
5351;SDS011;2698;51.454;6.736;2023-04-28T06:29:24;17.70;;;14.13;;
5351;SDS011;2698;51.454;6.736;2023-04-28T06:31:52;14.63;;;13.03;;
5351;SDS011;2698;51.454;6.736;2023-04-28T06:34:22;15.63;;;12.00;;
5351;SDS011;2698;51.454;6.736;2023-04-28T06:36:51;18.67;;;13.63;;
5351;SDS011;2698;51.454;6.736;2023-04-28T06:39:19;26.93;;;13.57;;
5351;SDS011;2698;51.454;6.736;2023-04-28T06:41:46;21.70;;;13.60;;
5351;SDS011;2698;51.454;6.736;2023-04-28T06:44:13;20.93;;;14.33;;
5351;SDS011;2698;51.454;6.736;2023-04-28T06:46:40;30.97;;;15.03;;
5351;SDS011;2698;51.454;6.736;2023-04-28T06:49:07;27.77;;;13.80;;
5351;SDS011;2698;51.454;6.736;2023-04-28T06:51:36;20.20;;;13.17;;
5351;SDS011;2698;51.454;6.736;2023-04-28T06:54:03;21.83;;;14.57;;
5351;SDS011;2698;51.454;6.736;2023-04-28T06:56:30;26.10;;;14.53;;
5351;SDS011;2698;51.454;6.736;2023-04-28T06:58:57;24.37;;;13.57;;
5351;SDS011;2698;51.454;6.736;2023-04-28T07:01:25;29.87;;;14.00;;
5351;SDS011;2698;51.454;6.736;2023-04-28T07:03:52;24.00;;;14.20;;
5351;SDS011;2698;51.454;6.736;2023-04-28T07:06:19;19.90;;;12.23;;
5351;SDS011;2698;51.454;6.736;2023-04-28T07:08:47;20.37;;;10.67;;
5351;SDS011;2698;51.454;6.736;2023-04-28T07:11:14;16.93;;;11.23;;
5351;SDS011;2698;51.454;6.736;2023-04-28T07:13:42;18.23;;;10.07;;
5351;SDS011;2698;51.454;6.736;2023-04-28T07:16:10;11.17;;;9.87;;
5351;SDS011;2698;51.454;6.736;2023-04-28T07:18:37;10.73;;;9.30;;
5351;SDS011;2698;51.454;6.736;2023-04-28T07:21:04;15.20;;;10.23;;
5351;SDS011;2698;51.454;6.736;2023-04-28T07:23:31;11.13;;;9.27;;
5351;SDS011;2698;51.454;6.736;2023-04-28T07:26:00;11.30;;;9.60;;
5351;SDS011;2698;51.454;6.736;2023-04-28T07:28:27;22.93;;;12.57;;
5351;SDS011;2698;51.454;6.736;2023-04-28T07:30:54;30.23;;;16.10;;
5351;SDS011;2698;51.454;6.736;2023-04-28T07:33:21;35.37;;;15.37;;
5351;SDS011;2698;51.454;6.736;2023-04-28T07:35:49;32.00;;;13.90;;
5351;SDS011;2698;51.454;6.736;2023-04-28T07:38:17;25.40;;;13.30;;
5351;SDS011;2698;51.454;6.736;2023-04-28T07:40:44;14.20;;;10.33;;
5351;SDS011;2698;51.454;6.736;2023-04-28T07:43:13;15.13;;;8.40;;
5351;SDS011;2698;51.454;6.736;2023-04-28T07:45:40;13.93;;;7.70;;
5351;SDS011;2698;51.454;6.736;2023-04-28T07:48:09;17.47;;;8.83;;
5351;SDS011;2698;51.454;6.736;2023-04-28T07:50:36;16.60;;;9.90;;
5351;SDS011;2698;51.454;6.736;2023-04-28T07:53:03;20.10;;;10.27;;
5351;SDS011;2698;51.454;6.736;2023-04-28T07:55:30;14.30;;;9.33;;
5351;SDS011;2698;51.454;6.736;2023-04-28T07:57:57;14.30;;;10.20;;
5351;SDS011;2698;51.454;6.736;2023-04-28T08:00:26;18.77;;;9.33;;
5351;SDS011;2698;51.454;6.736;2023-04-28T08:02:53;17.30;;;9.50;;
5351;SDS011;2698;51.454;6.736;2023-04-28T08:05:21;11.60;;;7.63;;
5351;SDS011;2698;51.454;6.736;2023-04-28T08:07:48;11.03;;;8.37;;
5351;SDS011;2698;51.454;6.736;2023-04-28T08:10:15;12.13;;;8.63;;
5351;SDS011;2698;51.454;6.736;2023-04-28T08:12:43;15.47;;;8.90;;
5351;SDS011;2698;51.454;6.736;2023-04-28T08:15:10;17.40;;;9.47;;
5351;SDS011;2698;51.454;6.736;2023-04-28T08:17:38;10.90;;;8.77;;
5351;SDS011;2698;51.454;6.736;2023-04-28T08:20:06;12.67;;;8.43;;
5351;SDS011;2698;51.454;6.736;2023-04-28T08:22:33;8.77;;;7.87;;
5351;SDS011;2698;51.454;6.736;2023-04-28T08:25:00;12.77;;;8.40;;
5351;SDS011;2698;51.454;6.736;2023-04-28T08:27:28;11.60;;;8.30;;
5351;SDS011;2698;51.454;6.736;2023-04-28T08:29:55;11.17;;;8.23;;
5351;SDS011;2698;51.454;6.736;2023-04-28T08:32:22;14.87;;;9.70;;
5351;SDS011;2698;51.454;6.736;2023-04-28T08:34:50;21.90;;;9.20;;
5351;SDS011;2698;51.454;6.736;2023-04-28T08:37:17;15.43;;;9.20;;
5351;SDS011;2698;51.454;6.736;2023-04-28T08:39:44;22.37;;;9.43;;
5351;SDS011;2698;51.454;6.736;2023-04-28T08:42:12;17.07;;;10.43;;
5351;SDS011;2698;51.454;6.736;2023-04-28T08:44:39;26.57;;;10.47;;
5351;SDS011;2698;51.454;6.736;2023-04-28T08:47:10;24.93;;;10.10;;
5351;SDS011;2698;51.454;6.736;2023-04-28T08:49:38;19.67;;;11.10;;
5351;SDS011;2698;51.454;6.736;2023-04-28T08:52:08;22.03;;;9.87;;
5351;SDS011;2698;51.454;6.736;2023-04-28T08:54:36;14.00;;;8.93;;
5351;SDS011;2698;51.454;6.736;2023-04-28T08:57:06;21.27;;;9.30;;
5351;SDS011;2698;51.454;6.736;2023-04-28T08:59:34;25.10;;;9.30;;
5351;SDS011;2698;51.454;6.736;2023-04-28T09:02:03;12.00;;;9.00;;
5351;SDS011;2698;51.454;6.736;2023-04-28T09:04:30;13.43;;;9.50;;
5351;SDS011;2698;51.454;6.736;2023-04-28T09:06:57;15.40;;;9.63;;
5351;SDS011;2698;51.454;6.736;2023-04-28T09:09:26;13.13;;;10.87;;
5351;SDS011;2698;51.454;6.736;2023-04-28T09:11:55;16.50;;;9.07;;
5351;SDS011;2698;51.454;6.736;2023-04-28T09:14:23;23.83;;;11.07;;
5351;SDS011;2698;51.454;6.736;2023-04-28T09:16:52;16.17;;;11.53;;
5351;SDS011;2698;51.454;6.736;2023-04-28T09:19:19;15.53;;;11.10;;
5351;SDS011;2698;51.454;6.736;2023-04-28T09:21:47;21.40;;;11.90;;
5351;SDS011;2698;51.454;6.736;2023-04-28T09:24:31;15.77;;;11.67;;
5351;SDS011;2698;51.454;6.736;2023-04-28T09:26:59;16.87;;;12.27;;
5351;SDS011;2698;51.454;6.736;2023-04-28T09:29:28;39.03;;;14.60;;
5351;SDS011;2698;51.454;6.736;2023-04-28T09:32:10;29.10;;;15.17;;
5351;SDS011;2698;51.454;6.736;2023-04-28T09:34:41;20.00;;;12.20;;
5351;SDS011;2698;51.454;6.736;2023-04-28T09:37:13;28.40;;;16.27;;
5351;SDS011;2698;51.454;6.736;2023-04-28T09:39:41;26.20;;;16.43;;
5351;SDS011;2698;51.454;6.736;2023-04-28T09:42:09;28.37;;;18.30;;
5351;SDS011;2698;51.454;6.736;2023-04-28T09:44:36;35.13;;;18.03;;
5351;SDS011;2698;51.454;6.736;2023-04-28T09:47:09;24.13;;;16.70;;
5351;SDS011;2698;51.454;6.736;2023-04-28T09:49:52;27.73;;;16.87;;
5351;SDS011;2698;51.454;6.736;2023-04-28T09:52:20;31.70;;;16.77;;
5351;SDS011;2698;51.454;6.736;2023-04-28T09:54:50;29.63;;;16.97;;
5351;SDS011;2698;51.454;6.736;2023-04-28T09:57:17;36.67;;;14.33;;
5351;SDS011;2698;51.454;6.736;2023-04-28T09:59:45;20.77;;;14.70;;
5351;SDS011;2698;51.454;6.736;2023-04-28T10:02:13;25.90;;;13.77;;
5351;SDS011;2698;51.454;6.736;2023-04-28T10:04:41;21.33;;;14.03;;
5351;SDS011;2698;51.454;6.736;2023-04-28T10:07:08;18.70;;;13.00;;
5351;SDS011;2698;51.454;6.736;2023-04-28T10:09:36;21.13;;;13.40;;
5351;SDS011;2698;51.454;6.736;2023-04-28T10:12:09;21.47;;;13.23;;
5351;SDS011;2698;51.454;6.736;2023-04-28T10:14:36;20.37;;;16.20;;
5351;SDS011;2698;51.454;6.736;2023-04-28T10:17:04;20.70;;;15.07;;
5351;SDS011;2698;51.454;6.736;2023-04-28T10:19:31;24.20;;;15.87;;
5351;SDS011;2698;51.454;6.736;2023-04-28T10:22:01;23.20;;;15.10;;
5351;SDS011;2698;51.454;6.736;2023-04-28T10:24:31;32.63;;;15.53;;
5351;SDS011;2698;51.454;6.736;2023-04-28T10:27:02;29.47;;;16.47;;
5351;SDS011;2698;51.454;6.736;2023-04-28T10:29:31;21.87;;;15.17;;
5351;SDS011;2698;51.454;6.736;2023-04-28T10:32:18;27.17;;;16.10;;
5351;SDS011;2698;51.454;6.736;2023-04-28T10:34:45;19.03;;;13.23;;
5351;SDS011;2698;51.454;6.736;2023-04-28T10:37:13;24.17;;;14.20;;
5351;SDS011;2698;51.454;6.736;2023-04-28T10:45:15;26.87;;;14.60;;
5351;SDS011;2698;51.454;6.736;2023-04-28T10:48:02;17.87;;;15.70;;
5351;SDS011;2698;51.454;6.736;2023-04-28T10:50:30;22.77;;;17.33;;
5351;SDS011;2698;51.454;6.736;2023-04-28T10:52:57;18.20;;;13.83;;
5351;SDS011;2698;51.454;6.736;2023-04-28T10:55:28;23.40;;;15.10;;
5351;SDS011;2698;51.454;6.736;2023-04-28T11:00:44;21.63;;;15.70;;
5351;SDS011;2698;51.454;6.736;2023-04-28T11:08:49;22.47;;;15.70;;
5351;SDS011;2698;51.454;6.736;2023-04-28T11:11:20;22.00;;;17.30;;
5351;SDS011;2698;51.454;6.736;2023-04-28T11:13:48;25.00;;;17.53;;
5351;SDS011;2698;51.454;6.736;2023-04-28T11:16:18;24.00;;;17.33;;
5351;SDS011;2698;51.454;6.736;2023-04-28T11:18:49;25.10;;;19.40;;
5351;SDS011;2698;51.454;6.736;2023-04-28T11:21:17;29.00;;;20.00;;
5351;SDS011;2698;51.454;6.736;2023-04-28T11:23:44;23.90;;;18.70;;
5351;SDS011;2698;51.454;6.736;2023-04-28T11:26:11;17.90;;;15.30;;
5351;SDS011;2698;51.454;6.736;2023-04-28T11:28:45;22.50;;;17.00;;
5351;SDS011;2698;51.454;6.736;2023-04-28T11:31:13;20.20;;;16.40;;
5351;SDS011;2698;51.454;6.736;2023-04-28T11:33:45;47.97;;;17.80;;
5351;SDS011;2698;51.454;6.736;2023-04-28T11:36:25;32.87;;;18.50;;
5351;SDS011;2698;51.454;6.736;2023-04-28T11:38:53;18.70;;;16.50;;
5351;SDS011;2698;51.454;6.736;2023-04-28T11:41:22;30.27;;;18.97;;
5351;SDS011;2698;51.454;6.736;2023-04-28T11:43:50;22.03;;;16.13;;
5351;SDS011;2698;51.454;6.736;2023-04-28T11:46:18;20.77;;;18.07;;
5351;SDS011;2698;51.454;6.736;2023-04-28T11:48:47;19.00;;;15.70;;
5351;SDS011;2698;51.454;6.736;2023-04-28T11:51:30;20.83;;;16.70;;
5351;SDS011;2698;51.454;6.736;2023-04-28T11:53:57;19.00;;;16.97;;
5351;SDS011;2698;51.454;6.736;2023-04-28T11:56:24;21.53;;;18.53;;
5351;SDS011;2698;51.454;6.736;2023-04-28T11:58:58;23.27;;;19.03;;
5351;SDS011;2698;51.454;6.736;2023-04-28T12:01:26;20.93;;;18.70;;
5351;SDS011;2698;51.454;6.736;2023-04-28T12:03:55;22.73;;;18.60;;
5351;SDS011;2698;51.454;6.736;2023-04-28T12:06:22;22.20;;;19.80;;
5351;SDS011;2698;51.454;6.736;2023-04-28T12:08:49;20.63;;;18.53;;
5351;SDS011;2698;51.454;6.736;2023-04-28T12:11:16;21.73;;;17.47;;
5351;SDS011;2698;51.454;6.736;2023-04-28T12:16:35;16.40;;;14.50;;
5351;SDS011;2698;51.454;6.736;2023-04-28T12:19:05;18.13;;;13.83;;
5351;SDS011;2698;51.454;6.736;2023-04-28T12:21:34;19.97;;;13.07;;
5351;SDS011;2698;51.454;6.736;2023-04-28T12:24:11;12.87;;;11.70;;
5351;SDS011;2698;51.454;6.736;2023-04-28T12:26:39;13.67;;;12.03;;
5351;SDS011;2698;51.454;6.736;2023-04-28T12:29:06;13.90;;;10.57;;
5351;SDS011;2698;51.454;6.736;2023-04-28T12:31:46;13.27;;;11.97;;
5351;SDS011;2698;51.454;6.736;2023-04-28T12:34:15;16.07;;;12.67;;
5351;SDS011;2698;51.454;6.736;2023-04-28T12:36:42;13.37;;;11.73;;
5351;SDS011;2698;51.454;6.736;2023-04-28T12:39:12;14.00;;;12.10;;
5351;SDS011;2698;51.454;6.736;2023-04-28T12:41:40;13.47;;;12.07;;
5351;SDS011;2698;51.454;6.736;2023-04-28T12:44:08;12.63;;;11.43;;
5351;SDS011;2698;51.454;6.736;2023-04-28T12:46:35;11.90;;;10.90;;
5351;SDS011;2698;51.454;6.736;2023-04-28T12:49:02;12.53;;;11.40;;
5351;SDS011;2698;51.454;6.736;2023-04-28T12:51:31;12.20;;;11.03;;
5351;SDS011;2698;51.454;6.736;2023-04-28T12:53:59;11.80;;;10.70;;
5351;SDS011;2698;51.454;6.736;2023-04-28T12:56:26;12.30;;;9.70;;
5351;SDS011;2698;51.454;6.736;2023-04-28T12:58:53;11.77;;;10.63;;
5351;SDS011;2698;51.454;6.736;2023-04-28T13:01:20;10.67;;;9.30;;
5351;SDS011;2698;51.454;6.736;2023-04-28T13:03:47;12.47;;;10.27;;
5351;SDS011;2698;51.454;6.736;2023-04-28T13:06:15;10.10;;;9.13;;
5351;SDS011;2698;51.454;6.736;2023-04-28T13:08:46;11.80;;;10.60;;
5351;SDS011;2698;51.454;6.736;2023-04-28T13:11:13;10.77;;;9.77;;
5351;SDS011;2698;51.454;6.736;2023-04-28T13:13:40;11.03;;;9.97;;
5351;SDS011;2698;51.454;6.736;2023-04-28T13:16:09;9.87;;;9.07;;
5351;SDS011;2698;51.454;6.736;2023-04-28T13:18:36;10.10;;;9.10;;
5351;SDS011;2698;51.454;6.736;2023-04-28T13:21:03;11.70;;;9.70;;
5351;SDS011;2698;51.454;6.736;2023-04-28T13:23:30;10.93;;;10.03;;
5351;SDS011;2698;51.454;6.736;2023-04-28T13:25:59;11.10;;;10.10;;
5351;SDS011;2698;51.454;6.736;2023-04-28T13:28:27;10.40;;;9.53;;
5351;SDS011;2698;51.454;6.736;2023-04-28T13:30:54;10.33;;;9.43;;
5351;SDS011;2698;51.454;6.736;2023-04-28T13:33:21;10.67;;;9.70;;
5351;SDS011;2698;51.454;6.736;2023-04-28T13:35:54;10.00;;;8.47;;
5351;SDS011;2698;51.454;6.736;2023-04-28T13:38:22;9.30;;;8.50;;
5351;SDS011;2698;51.454;6.736;2023-04-28T13:40:49;11.33;;;9.70;;
5351;SDS011;2698;51.454;6.736;2023-04-28T13:43:18;10.03;;;8.13;;
5351;SDS011;2698;51.454;6.736;2023-04-28T13:45:45;10.00;;;9.10;;
5351;SDS011;2698;51.454;6.736;2023-04-28T13:48:12;9.17;;;8.23;;
5351;SDS011;2698;51.454;6.736;2023-04-28T13:50:39;9.33;;;8.50;;
5351;SDS011;2698;51.454;6.736;2023-04-28T13:53:06;8.73;;;7.73;;
5351;SDS011;2698;51.454;6.736;2023-04-28T13:55:33;8.20;;;7.50;;
5351;SDS011;2698;51.454;6.736;2023-04-28T13:58:00;8.80;;;7.67;;
5351;SDS011;2698;51.454;6.736;2023-04-28T14:00:30;9.67;;;7.30;;
5351;SDS011;2698;51.454;6.736;2023-04-28T14:02:57;7.53;;;6.83;;
5351;SDS011;2698;51.454;6.736;2023-04-28T14:05:25;8.10;;;7.40;;
5351;SDS011;2698;51.454;6.736;2023-04-28T14:07:52;9.07;;;8.27;;
5351;SDS011;2698;51.454;6.736;2023-04-28T14:10:20;16.63;;;10.70;;
5351;SDS011;2698;51.454;6.736;2023-04-28T14:12:47;13.17;;;10.37;;
5351;SDS011;2698;51.454;6.736;2023-04-28T14:15:14;11.30;;;10.20;;
5351;SDS011;2698;51.454;6.736;2023-04-28T14:17:43;9.50;;;8.70;;
5351;SDS011;2698;51.454;6.736;2023-04-28T14:20:10;8.30;;;7.60;;
5351;SDS011;2698;51.454;6.736;2023-04-28T14:22:38;9.07;;;8.20;;
5351;SDS011;2698;51.454;6.736;2023-04-28T14:25:06;7.30;;;6.27;;
5351;SDS011;2698;51.454;6.736;2023-04-28T14:27:33;6.23;;;5.73;;
5351;SDS011;2698;51.454;6.736;2023-04-28T14:30:00;6.73;;;6.10;;
5351;SDS011;2698;51.454;6.736;2023-04-28T14:32:27;7.60;;;6.90;;
5351;SDS011;2698;51.454;6.736;2023-04-28T14:34:56;9.20;;;8.30;;
5351;SDS011;2698;51.454;6.736;2023-04-28T14:37:23;10.97;;;8.30;;
5351;SDS011;2698;51.454;6.736;2023-04-28T14:39:50;9.20;;;8.33;;
5351;SDS011;2698;51.454;6.736;2023-04-28T14:42:17;7.53;;;6.93;;
5351;SDS011;2698;51.454;6.736;2023-04-28T14:44:45;5.93;;;5.43;;
5351;SDS011;2698;51.454;6.736;2023-04-28T14:47:12;7.07;;;6.47;;
5351;SDS011;2698;51.454;6.736;2023-04-28T14:49:39;4.27;;;3.97;;
5351;SDS011;2698;51.454;6.736;2023-04-28T14:52:07;3.50;;;3.27;;
5351;SDS011;2698;51.454;6.736;2023-04-28T14:54:34;3.50;;;3.30;;
5351;SDS011;2698;51.454;6.736;2023-04-28T14:57:02;3.97;;;3.67;;
5351;SDS011;2698;51.454;6.736;2023-04-28T14:59:29;3.97;;;3.67;;
5351;SDS011;2698;51.454;6.736;2023-04-28T15:01:56;4.73;;;4.43;;
5351;SDS011;2698;51.454;6.736;2023-04-28T15:04:23;4.83;;;4.40;;
5351;SDS011;2698;51.454;6.736;2023-04-28T15:06:53;5.77;;;5.37;;
5351;SDS011;2698;51.454;6.736;2023-04-28T15:09:22;7.13;;;6.43;;
5351;SDS011;2698;51.454;6.736;2023-04-28T15:11:50;6.80;;;6.30;;
5351;SDS011;2698;51.454;6.736;2023-04-28T15:14:17;8.80;;;8.13;;